EPRZ/RZE METAR and TAF weather

Enter ICAO airport designator
Station Type Date Time Source
EPRZ METAR 2019/08/19 22:30 UTC NOAA

EPRZ 192230Z 22005KT CAVOK 21/16 Q1018


Station Type Date Time Source
EPRZ Decoded METAR 2019/08/19 22:30 UTC NOAA

Rzeszow-Jasionka, Poland (EPRZ) 50-06N 022-03E 202M
Aug 19, 2019 - 06:30 PM EDT / 2019.08.19 2230 UTC
Wind: from the SW (220 degrees) at 6 MPH (5 KT):0
Visibility: greater than 7 mile(s):0
Temperature: 69 F (21 C)
Dew Point: 60 F (16 C)
Relative Humidity: 73%
Pressure (altimeter): 30.06 in. Hg (1018 hPa)
ob: EPRZ 192230Z 22005KT CAVOK 21/16 Q1018
cycle: 22

Station Type Date Time Source
EPRZ TAF 2019/08/19 18:33 UTC NOAA

TAF EPRZ 191730Z 1918/2018 19010KT CAVOK
BECMG 1918/1921 29007KT
TEMPO 1918/1921 VRB15G30KT 4000 TSRA BKN020CB
BECMG 2009/2012 04010KT PROB30
TEMPO 2014/2018 VRB15G30KT 4000 TSRA BKN020CB

Example: see airport list